Time;durP1;ratioP1;P1;durP2;ratioP2;P2;SDS_P1;SDS_P2;PMS_P1;PMS_P2;Temp;Humidity;BMP_temperature;BMP_pressure;BME280_temperature;BME280_humidity;BME280_pressure;Samples;Min_cycle;Max_cycle;Signal;HPM_P1;HPM_P2
2021/01/10 00:01:51;;;;;;;12.97;10.83;;;1.30;94.40;;;;;;10461526;28;20294;-85
2021/01/10 00:06:53;;;;;;;14.17;10.50;;;1.30;94.40;;;;;;10456741;28;20661;-85
2021/01/10 00:11:55;;;;;;;10.67;9.53;;;1.30;94.70;;;;;;10438394;28;20208;-85
2021/01/10 00:16:57;;;;;;;11.67;9.93;;;1.30;94.50;;;;;;10434597;28;20193;-86
2021/01/10 00:21:59;;;;;;;12.47;11.17;;;1.40;94.80;;;;;;10433534;28;20308;-84
2021/01/10 00:27:02;;;;;;;11.63;10.43;;;1.40;94.80;;;;;;10444330;28;20250;-84
2021/01/10 00:32:05;;;;;;;11.67;10.00;;;1.40;95.10;;;;;;10454698;28;20217;-85
2021/01/10 00:37:11;;;;;;;10.67;9.60;;;1.30;94.80;;;;;;10434611;28;20665;-85
2021/01/10 00:42:17;;;;;;;12.20;10.97;;;1.30;94.90;;;;;;10454228;28;20312;-85
2021/01/10 00:47:24;;;;;;;12.50;10.97;;;1.30;94.80;;;;;;10437173;28;20213;-85
2021/01/10 00:52:35;;;;;;;14.20;12.67;;;1.30;95.10;;;;;;10444383;28;20653;-85
2021/01/10 00:57:38;;;;;;;17.30;14.43;;;1.30;95.30;;;;;;10464369;28;20201;-86
2021/01/10 01:02:43;;;;;;;19.00;16.27;;;1.30;95.50;;;;;;10461523;28;20695;-85
2021/01/10 01:07:46;;;;;;;20.40;16.03;;;1.40;96.00;;;;;;10450648;28;20212;-85
2021/01/10 01:12:49;;;;;;;21.13;17.07;;;1.40;96.30;;;;;;10432944;28;20217;-86
2021/01/10 01:17:51;;;;;;;22.03;17.90;;;1.50;96.60;;;;;;10433431;28;20209;-86
2021/01/10 01:22:53;;;;;;;20.70;16.93;;;1.70;96.80;;;;;;10449310;28;20279;-85
2021/01/10 01:27:56;;;;;;;21.47;18.03;;;1.80;96.60;;;;;;10449897;28;20251;-86
2021/01/10 01:32:58;;;;;;;24.00;17.90;;;1.90;96.70;;;;;;10450386;28;20217;-86
2021/01/10 01:37:59;;;;;;;17.57;15.60;;;2.00;96.20;;;;;;10469342;28;20201;-84
2021/01/10 01:43:02;;;;;;;20.33;18.10;;;2.00;96.10;;;;;;10441459;28;20700;-86
2021/01/10 01:48:04;;;;;;;21.53;18.70;;;2.00;96.30;;;;;;10443423;28;20228;-86
2021/01/10 01:53:06;;;;;;;22.03;18.33;;;2.00;96.20;;;;;;10441941;28;20296;-86
2021/01/10 01:58:09;;;;;;;22.67;18.37;;;2.00;96.10;;;;;;10439724;28;20240;-86
2021/01/10 02:03:14;;;;;;;18.80;16.47;;;2.10;96.30;;;;;;10455678;28;20220;-86
2021/01/10 02:08:16;;;;;;;18.47;15.83;;;2.10;95.80;;;;;;10430921;28;20229;-85
2021/01/10 02:13:20;;;;;;;15.93;14.20;;;2.00;95.50;;;;;;10444052;28;20232;-85
2021/01/10 02:18:23;;;;;;;16.73;13.37;;;1.90;95.20;;;;;;10463596;28;20570;-85
2021/01/10 02:23:30;;;;;;;15.77;13.90;;;1.80;95.10;;;;;;10446198;28;20228;-85
2021/01/10 02:28:34;;;;;;;15.87;13.53;;;1.70;95.30;;;;;;10436790;28;20205;-84
2021/01/10 02:33:42;;;;;;;15.23;13.63;;;1.60;95.60;;;;;;10429529;28;20254;-85
2021/01/10 02:38:48;;;;;;;15.30;13.70;;;1.50;95.50;;;;;;10429938;28;20192;-85
2021/01/10 02:44:02;;;;;;;13.57;12.17;;;1.40;95.70;;;;;;10446148;28;20229;-85
2021/01/10 02:49:04;;;;;;;15.17;13.57;;;1.40;95.60;;;;;;10447058;28;20197;-85
2021/01/10 02:54:06;;;;;;;12.20;11.00;;;1.30;95.40;;;;;;10431887;28;20284;-84
2021/01/10 02:59:16;;;;;;;12.70;10.80;;;1.20;95.20;;;;;;10424748;28;20689;-84
2021/01/10 03:04:18;;;;;;;12.93;11.37;;;1.10;95.30;;;;;;10428048;28;20243;-85
2021/01/10 03:09:21;;;;;;;11.50;10.30;;;1.00;95.10;;;;;;10449270;28;20220;-84
2021/01/10 03:14:24;;;;;;;12.37;11.10;;;1.00;95.30;;;;;;10446256;28;20308;-84
2021/01/10 03:19:25;;;;;;;11.60;10.40;;;0.90;95.00;;;;;;10446091;28;20821;-85
2021/01/10 03:24:27;;;;;;;11.53;10.27;;;0.80;95.20;;;;;;10397656;28;20205;-84
2021/01/10 03:29:30;;;;;;;11.83;10.63;;;0.80;95.20;;;;;;10439767;28;20300;-85
2021/01/10 03:34:32;;;;;;;12.30;11.00;;;0.80;95.40;;;;;;10456043;28;20545;-85
2021/01/10 03:39:33;;;;;;;12.00;10.10;;;0.70;95.40;;;;;;10456017;28;20279;-85
2021/01/10 03:44:36;;;;;;;12.57;11.33;;;0.70;95.30;;;;;;10455786;28;20193;-84
2021/01/10 03:49:38;;;;;;;11.87;10.63;;;0.60;95.10;;;;;;10439697;28;20689;-85
2021/01/10 03:54:40;;;;;;;13.93;12.07;;;0.60;95.10;;;;;;10438406;28;20283;-85
2021/01/10 03:59:42;;;;;;;12.37;11.03;;;0.60;95.00;;;;;;10457287;28;20283;-84
2021/01/10 04:04:44;;;;;;;13.10;11.50;;;0.60;95.10;;;;;;10467896;28;20626;-84
2021/01/10 04:09:48;;;;;;;11.80;10.60;;;0.60;95.30;;;;;;10453889;28;20217;-85
2021/01/10 04:14:55;;;;;;;12.10;10.90;;;0.70;95.50;;;;;;10456715;28;20259;-85
2021/01/10 04:19:57;;;;;;;11.77;10.37;;;0.70;95.50;;;;;;10436287;28;20221;-84
2021/01/10 04:24:58;;;;;;;12.43;11.13;;;0.80;95.60;;;;;;10435932;28;20292;-84
2021/01/10 04:30:03;;;;;;;12.83;11.53;;;0.90;95.60;;;;;;10436311;28;20748;-84
2021/01/10 04:35:06;;;;;;;12.90;10.30;;;1.00;95.50;;;;;;10436163;28;20614;-84
2021/01/10 04:40:08;;;;;;;13.07;11.60;;;1.00;95.70;;;;;;10479513;22;20229;-79
2021/01/10 04:45:12;;;;;;;16.27;13.77;;;1.10;95.30;;;;;;10543518;28;20199;-79
2021/01/10 04:50:13;;;;;;;16.93;14.50;;;1.20;95.90;;;;;;10542319;28;20218;-79
2021/01/10 04:55:15;;;;;;;15.83;14.13;;;1.30;96.00;;;;;;10541255;28;20329;-79
2021/01/10 05:00:19;;;;;;;17.40;14.70;;;1.40;95.50;;;;;;10541313;28;20231;-79
2021/01/10 05:05:22;;;;;;;14.80;12.47;;;1.50;95.90;;;;;;10540864;28;20310;-79
2021/01/10 05:10:24;;;;;;;16.30;14.50;;;1.60;95.70;;;;;;10540807;28;20211;-79
2021/01/10 05:15:27;;;;;;;15.27;13.70;;;1.60;95.90;;;;;;10540307;28;20213;-79
2021/01/10 05:20:31;;;;;;;15.17;13.63;;;1.70;95.80;;;;;;10540210;28;20267;-79
2021/01/10 05:25:32;;;;;;;16.23;13.30;;;1.80;95.60;;;;;;10541966;28;20581;-79
2021/01/10 05:30:35;;;;;;;16.00;12.87;;;1.90;95.80;;;;;;10540803;28;20710;-78
2021/01/10 05:35:48;;;;;;;16.60;14.57;;;2.00;95.50;;;;;;10523939;28;20246;-79
2021/01/10 05:40:52;;;;;;;16.13;13.03;;;2.00;95.00;;;;;;10540709;28;20246;-78
2021/01/10 05:45:55;;;;;;;16.17;14.10;;;2.10;95.60;;;;;;10540643;28;20195;-78
2021/01/10 05:50:57;;;;;;;15.07;13.33;;;2.10;96.00;;;;;;10540534;28;20337;-78
2021/01/10 05:56:00;;;;;;;15.00;12.67;;;2.10;95.60;;;;;;10538017;28;20241;-78
2021/01/10 06:01:13;;;;;;;16.10;14.40;;;2.20;95.10;;;;;;10503783;28;20312;-79
2021/01/10 06:06:14;;;;;;;16.30;14.07;;;2.10;94.90;;;;;;10496625;28;20219;-78
2021/01/10 06:11:24;;;;;;;13.73;12.07;;;2.10;94.80;;;;;;10498718;28;20709;-79
2021/01/10 06:16:28;;;;;;;13.70;12.30;;;2.10;94.80;;;;;;10497440;28;20196;-79
2021/01/10 06:21:31;;;;;;;14.60;12.20;;;2.10;95.20;;;;;;10497136;28;20222;-79
2021/01/10 06:26:34;;;;;;;15.97;13.73;;;2.10;95.60;;;;;;10517307;28;20199;-79
2021/01/10 06:31:38;;;;;;;14.87;12.90;;;2.10;95.20;;;;;;10537850;28;20203;-79
2021/01/10 06:36:41;;;;;;;14.83;13.10;;;2.10;94.00;;;;;;10539006;28;20651;-79
2021/01/10 06:42:07;;;;;;;15.07;12.50;;;2.00;94.20;;;;;;10536718;28;20717;-79
2021/01/10 06:47:18;;;;;;;15.40;13.27;;;2.00;94.50;;;;;;10552817;28;20271;-79
2021/01/10 06:52:24;;;;;;;13.70;12.20;;;2.00;95.10;;;;;;10557581;28;20222;-79
2021/01/10 06:57:31;;;;;;;14.30;12.50;;;2.00;93.80;;;;;;10546491;28;20204;-79
2021/01/10 07:03:07;;;;;;;15.13;13.30;;;1.80;93.80;;;;;;10534390;28;20766;-78
2021/01/10 07:08:33;;;;;;;16.47;13.53;;;1.70;94.30;;;;;;10519657;28;20192;-78
2021/01/10 07:13:35;;;;;;;14.70;12.53;;;1.50;94.40;;;;;;10536931;28;20214;-79
2021/01/10 07:18:49;;;;;;;12.97;11.57;;;1.50;94.80;;;;;;10535729;28;20217;-79
2021/01/10 07:23:51;;;;;;;16.30;13.50;;;1.50;95.10;;;;;;10518930;28;20224;-79
2021/01/10 07:28:52;;;;;;;14.60;13.10;;;1.50;94.60;;;;;;10535812;28;20650;-79
2021/01/10 07:34:16;;;;;;;13.77;12.37;;;1.60;95.30;;;;;;10518366;28;20243;-79
2021/01/10 07:39:23;;;;;;;13.93;12.37;;;1.70;94.70;;;;;;10528824;28;20204;-79
2021/01/10 07:44:44;;;;;;;15.23;13.20;;;1.70;94.70;;;;;;10536382;28;20216;-79
2021/01/10 07:49:52;;;;;;;16.30;13.43;;;1.80;94.80;;;;;;10536012;28;20246;-79
2021/01/10 07:54:56;;;;;;;15.97;13.73;;;1.90;95.20;;;;;;10535043;28;20747;-79
2021/01/10 08:00:12;;;;;;;16.27;14.23;;;1.90;94.80;;;;;;10534895;28;20208;-79
2021/01/10 08:05:16;;;;;;;16.97;14.20;;;2.00;94.60;;;;;;10535324;28;20198;-79
2021/01/10 08:10:19;;;;;;;15.30;13.40;;;2.00;94.50;;;;;;10531445;28;20207;-79
2021/01/10 08:15:20;;;;;;;15.30;13.70;;;2.00;94.40;;;;;;10530297;28;20200;-78
2021/01/10 08:20:25;;;;;;;14.90;13.30;;;2.10;94.50;;;;;;10521706;28;20264;-79
2021/01/10 08:25:26;;;;;;;17.20;14.07;;;2.10;94.60;;;;;;10506001;28;20268;-79
2021/01/10 08:30:28;;;;;;;16.13;14.43;;;2.20;94.30;;;;;;10518692;28;20248;-79
2021/01/10 08:35:31;;;;;;;13.70;12.27;;;2.20;94.40;;;;;;10501540;28;20251;-79
2021/01/10 08:40:32;;;;;;;17.53;15.63;;;2.30;94.60;;;;;;10500972;28;20250;-79
2021/01/10 08:45:34;;;;;;;15.47;13.47;;;2.40;94.90;;;;;;10501117;28;20201;-78
2021/01/10 08:50:41;;;;;;;16.57;14.77;;;2.50;93.80;;;;;;10504999;28;20295;-79
2021/01/10 08:55:43;;;;;;;15.27;13.63;;;2.50;94.40;;;;;;10520175;28;20271;-79
2021/01/10 09:00:45;;;;;;;17.00;14.53;;;2.60;94.10;;;;;;10519243;28;20667;-79
2021/01/10 09:05:49;;;;;;;16.23;14.53;;;2.70;94.50;;;;;;10532380;28;20287;-79
2021/01/10 09:11:00;;;;;;;14.90;13.20;;;2.70;94.10;;;;;;10532055;28;20204;-79
2021/01/10 09:16:03;;;;;;;16.20;14.50;;;2.70;94.40;;;;;;10516792;28;20195;-78
2021/01/10 09:21:12;;;;;;;14.50;12.90;;;2.80;93.80;;;;;;10519556;28;20204;-78
2021/01/10 09:26:24;;;;;;;15.60;13.13;;;2.80;94.20;;;;;;10532735;28;20656;-78
2021/01/10 09:31:40;;;;;;;14.07;12.03;;;2.70;93.50;;;;;;10538824;28;20250;-79
2021/01/10 09:36:42;;;;;;;15.10;13.47;;;2.70;94.30;;;;;;10521705;28;20274;-78
2021/01/10 09:41:52;;;;;;;15.00;13.10;;;2.70;94.00;;;;;;10542001;28;20310;-79
2021/01/10 09:46:54;;;;;;;14.87;13.27;;;2.70;94.40;;;;;;10544103;28;20237;-79
2021/01/10 09:51:58;;;;;;;14.60;13.00;;;2.70;94.50;;;;;;10551508;28;20208;-79
2021/01/10 09:57:01;;;;;;;15.10;13.60;;;2.70;94.50;;;;;;10549130;28;20273;-79
2021/01/10 10:02:15;;;;;;;14.13;12.63;;;2.60;94.70;;;;;;10555971;28;20220;-79
2021/01/10 10:07:32;;;;;;;15.33;13.57;;;2.70;94.50;;;;;;10547913;28;20667;-79
2021/01/10 10:12:34;;;;;;;13.67;12.27;;;2.70;94.70;;;;;;10542016;28;20208;-79
2021/01/10 10:17:37;;;;;;;14.33;12.77;;;2.70;94.70;;;;;;10546924;28;20654;-79
2021/01/10 10:22:40;;;;;;;13.60;12.30;;;2.70;94.40;;;;;;10546154;28;20215;-79
2021/01/10 10:27:58;;;;;;;13.23;11.83;;;2.70;94.30;;;;;;10541788;28;20444;-79
2021/01/10 10:33:00;;;;;;;12.63;11.37;;;2.70;94.50;;;;;;10538900;28;20212;-79
2021/01/10 10:38:04;;;;;;;16.73;13.30;;;2.70;94.40;;;;;;10550849;28;20226;-79
2021/01/10 10:43:06;;;;;;;14.10;12.50;;;2.70;94.50;;;;;;10540326;22;20314;-80
2021/01/10 10:48:08;;;;;;;12.00;10.80;;;2.80;94.70;;;;;;10505293;28;20671;-80
2021/01/10 10:53:10;;;;;;;13.10;11.37;;;2.80;94.60;;;;;;10521704;28;20265;-80
2021/01/10 10:58:12;;;;;;;13.03;11.80;;;2.90;93.80;;;;;;10529025;28;20189;-79
2021/01/10 11:03:13;;;;;;;12.20;11.00;;;2.90;94.60;;;;;;10518464;28;20279;-80
2021/01/10 11:08:16;;;;;;;11.40;10.20;;;2.90;94.60;;;;;;10515728;28;20261;-80
2021/01/10 11:13:18;;;;;;;11.60;10.27;;;3.00;94.20;;;;;;10548822;28;20648;-80
2021/01/10 11:18:19;;;;;;;11.07;9.00;;;3.00;92.90;;;;;;10554981;28;20192;-80
2021/01/10 11:23:22;;;;;;;11.60;10.40;;;2.90;93.50;;;;;;10531451;28;20357;-80
2021/01/10 11:28:23;;;;;;;13.47;12.07;;;3.00;93.30;;;;;;10529035;28;20228;-80
2021/01/10 11:33:26;;;;;;;11.53;9.67;;;2.90;93.30;;;;;;10507714;28;20243;-80
2021/01/10 11:38:29;;;;;;;11.70;10.50;;;3.00;93.20;;;;;;10509651;28;20296;-80
2021/01/10 11:43:30;;;;;;;12.90;11.60;;;3.00;93.00;;;;;;10524606;28;20224;-81
2021/01/10 11:48:33;;;;;;;11.60;10.40;;;3.10;92.70;;;;;;10532360;28;20196;-80
2021/01/10 11:53:36;;;;;;;14.90;10.40;;;3.00;93.40;;;;;;10543185;28;20270;-80
2021/01/10 11:58:39;;;;;;;12.37;11.03;;;3.00;93.00;;;;;;10508739;28;20228;-81
2021/01/10 12:03:42;;;;;;;11.97;10.53;;;3.10;93.50;;;;;;10525515;28;20216;-81
2021/01/10 12:08:45;;;;;;;12.53;11.23;;;3.20;93.40;;;;;;10532029;28;20200;-81
2021/01/10 12:13:47;;;;;;;12.00;10.80;;;3.20;93.60;;;;;;10527610;28;20204;-81
2021/01/10 12:18:48;;;;;;;10.53;8.93;;;3.30;93.50;;;;;;10530870;28;20193;-80
2021/01/10 12:23:51;;;;;;;9.47;8.50;;;3.40;93.40;;;;;;10529513;28;20311;-80
2021/01/10 12:28:53;;;;;;;9.07;8.20;;;3.40;93.30;;;;;;10505284;28;20279;-80
2021/01/10 12:33:54;;;;;;;9.00;8.10;;;3.50;93.10;;;;;;10525551;28;20211;-80
2021/01/10 12:38:57;;;;;;;9.53;8.53;;;3.50;91.70;;;;;;10548753;28;20196;-80
2021/01/10 12:43:58;;;;;;;9.43;8.53;;;3.50;92.40;;;;;;10545516;28;20259;-79
2021/01/10 12:49:00;;;;;;;9.23;8.20;;;3.60;92.10;;;;;;10508541;28;20260;-80
2021/01/10 12:54:03;;;;;;;9.40;8.40;;;3.60;92.10;;;;;;10532235;28;20242;-80
2021/01/10 12:59:04;;;;;;;9.13;8.23;;;3.60;91.90;;;;;;10537230;28;20219;-80
2021/01/10 13:04:06;;;;;;;7.70;7.00;;;3.70;92.30;;;;;;10526742;28;20680;-80
2021/01/10 13:09:08;;;;;;;8.03;7.30;;;3.70;91.50;;;;;;10526972;28;20192;-80
2021/01/10 13:14:10;;;;;;;7.60;6.90;;;3.70;92.20;;;;;;10517723;28;20728;-80
2021/01/10 13:19:11;;;;;;;8.60;7.80;;;3.70;91.30;;;;;;10540181;28;20670;-80
2021/01/10 13:24:14;;;;;;;7.77;7.07;;;3.60;91.60;;;;;;10542805;28;20215;-80
2021/01/10 13:29:16;;;;;;;8.33;7.53;;;3.70;91.60;;;;;;10546002;28;20279;-80
2021/01/10 13:34:17;;;;;;;8.97;8.07;;;3.70;90.90;;;;;;10520982;28;20273;-80
2021/01/10 13:39:20;;;;;;;8.40;7.60;;;3.70;91.10;;;;;;10516323;28;20204;-80
2021/01/10 13:44:22;;;;;;;8.10;7.37;;;3.80;91.40;;;;;;10530563;28;20248;-80
2021/01/10 13:49:23;;;;;;;7.50;6.70;;;3.90;91.50;;;;;;10512500;28;20231;-80
2021/01/10 13:54:28;;;;;;;8.40;7.60;;;3.90;91.30;;;;;;10536760;28;20211;-80
2021/01/10 13:59:29;;;;;;;8.97;7.23;;;3.90;91.50;;;;;;10514302;28;20193;-79
2021/01/10 14:04:31;;;;;;;10.10;8.40;;;3.90;91.10;;;;;;10524619;28;20222;-80
2021/01/10 14:09:34;;;;;;;9.63;8.47;;;3.90;90.80;;;;;;10520568;28;20184;-80
2021/01/10 14:14:35;;;;;;;9.90;9.00;;;3.80;91.30;;;;;;10528094;28;20200;-80
2021/01/10 14:19:37;;;;;;;11.87;9.30;;;3.80;91.00;;;;;;10524932;28;20223;-80
2021/01/10 14:24:39;;;;;;;10.40;9.40;;;3.70;90.80;;;;;;10521285;28;20246;-80
2021/01/10 14:29:41;;;;;;;9.87;8.90;;;3.70;91.70;;;;;;10537786;28;20573;-80
2021/01/10 14:34:43;;;;;;;9.53;8.63;;;3.70;90.40;;;;;;10530330;28;20211;-80
2021/01/10 14:39:45;;;;;;;9.97;8.90;;;3.60;90.20;;;;;;10514020;28;20215;-80
2021/01/10 14:44:47;;;;;;;9.47;8.47;;;3.60;89.30;;;;;;10528214;28;20217;-80
2021/01/10 14:49:48;;;;;;;10.53;9.40;;;3.50;89.10;;;;;;10548096;28;20251;-79
2021/01/10 14:54:51;;;;;;;12.20;9.90;;;3.40;90.00;;;;;;10533917;28;20255;-80
2021/01/10 14:59:52;;;;;;;11.20;10.10;;;3.40;90.50;;;;;;10529792;28;20203;-80
2021/01/10 15:04:54;;;;;;;10.50;9.40;;;3.40;90.90;;;;;;10565392;28;20248;-79
2021/01/10 15:09:57;;;;;;;9.83;8.93;;;3.40;90.80;;;;;;10587191;28;20226;-78
2021/01/10 15:14:58;;;;;;;10.33;9.30;;;3.40;90.90;;;;;;10546089;28;20670;-78
2021/01/10 15:20:00;;;;;;;10.23;9.23;;;3.40;90.80;;;;;;10583499;28;20270;-78
2021/01/10 15:25:03;;;;;;;10.40;9.33;;;3.40;90.70;;;;;;10577432;28;20204;-78
2021/01/10 15:30:06;;;;;;;12.13;10.83;;;3.40;91.20;;;;;;10520013;28;20208;-78
2021/01/10 15:35:08;;;;;;;10.60;9.60;;;3.40;90.90;;;;;;10501482;28;20676;-79
2021/01/10 15:40:12;;;;;;;9.67;8.67;;;3.40;91.20;;;;;;10499064;28;20216;-78
2021/01/10 15:45:14;;;;;;;13.40;10.90;;;3.40;90.90;;;;;;10497808;28;20730;-79
2021/01/10 15:50:16;;;;;;;11.30;10.20;;;3.30;91.10;;;;;;10510503;28;20230;-79
2021/01/10 15:55:18;;;;;;;12.70;11.33;;;3.20;91.40;;;;;;10530311;28;20287;-78
2021/01/10 16:00:21;;;;;;;10.83;9.73;;;3.10;91.40;;;;;;10514314;28;20627;-79
2021/01/10 16:05:22;;;;;;;9.10;8.30;;;3.10;91.80;;;;;;10514715;28;20200;-78
2021/01/10 16:10:25;;;;;;;9.97;8.97;;;3.00;92.00;;;;;;10531876;28;20214;-79
2021/01/10 16:15:27;;;;;;;11.77;10.13;;;2.90;92.10;;;;;;10554008;28;20199;-78
2021/01/10 16:20:28;;;;;;;17.50;14.77;;;2.80;92.50;;;;;;10495329;28;20693;-79
2021/01/10 16:25:31;;;;;;;11.50;10.40;;;2.80;92.50;;;;;;10542146;28;20198;-79
2021/01/10 16:30:33;;;;;;;14.30;12.80;;;2.70;92.50;;;;;;10518071;28;20733;-79
2021/01/10 16:35:35;;;;;;;12.57;11.27;;;2.60;92.80;;;;;;10507228;28;20199;-79
2021/01/10 16:41:09;;;;;;;13.60;12.27;;;2.50;92.50;;;;;;10532882;22;20539;-85
2021/01/10 16:46:22;;;;;;;15.33;13.83;;;2.50;92.80;;;;;;10429589;28;20244;-84
2021/01/10 16:51:37;;;;;;;14.53;13.13;;;2.50;93.10;;;;;;10460214;28;20248;-85
2021/01/10 16:56:39;;;;;;;16.63;15.00;;;2.50;92.80;;;;;;10459538;28;20201;-84
2021/01/10 17:01:52;;;;;;;15.57;13.97;;;2.50;92.40;;;;;;10430281;28;20838;-85
2021/01/10 17:06:54;;;;;;;15.80;14.20;;;2.50;92.70;;;;;;10443721;28;20205;-84
2021/01/10 17:11:55;;;;;;;15.37;13.53;;;2.40;92.40;;;;;;10423313;28;20677;-84
2021/01/10 17:16:59;;;;;;;14.23;12.83;;;2.40;92.40;;;;;;10424965;28;20215;-84
2021/01/10 17:22:00;;;;;;;14.53;13.00;;;2.40;92.90;;;;;;10442881;28;20744;-85
2021/01/10 17:27:02;;;;;;;13.23;11.70;;;2.40;92.50;;;;;;10420373;28;20214;-84
2021/01/10 17:32:05;;;;;;;17.60;15.67;;;2.30;92.40;;;;;;10458846;28;20228;-85
2021/01/10 17:37:07;;;;;;;22.20;19.57;;;2.20;92.30;;;;;;10438041;28;20217;-82
2021/01/10 17:42:09;;;;;;;16.07;14.37;;;2.20;92.50;;;;;;10436495;28;20220;-82
2021/01/10 17:47:14;;;;;;;15.63;13.97;;;2.10;93.00;;;;;;10427974;28;20268;-82
2021/01/10 17:52:16;;;;;;;15.03;13.53;;;2.00;92.80;;;;;;10451234;28;20296;-82
2021/01/10 17:57:17;;;;;;;14.83;13.33;;;1.90;93.00;;;;;;10450881;28;20292;-82
2021/01/10 18:02:20;;;;;;;16.17;14.43;;;1.90;93.00;;;;;;10420970;28;20220;-85
2021/01/10 18:07:26;;;;;;;16.23;14.53;;;1.80;92.80;;;;;;10435978;28;20205;-84
2021/01/10 18:12:29;;;;;;;16.33;14.50;;;1.70;92.80;;;;;;10440408;28;20213;-84
2021/01/10 18:17:32;;;;;;;17.17;15.37;;;1.70;92.90;;;;;;10421687;28;20190;-85
2021/01/10 18:22:35;;;;;;;17.30;15.40;;;1.60;93.00;;;;;;10441635;28;20217;-82
2021/01/10 18:27:37;;;;;;;17.83;14.90;;;1.60;93.10;;;;;;10423288;28;20205;-84
2021/01/10 18:32:39;;;;;;;19.43;17.50;;;1.50;93.30;;;;;;10421664;28;20213;-82
2021/01/10 18:37:41;;;;;;;17.70;15.40;;;1.50;93.40;;;;;;10424068;28;20200;-85
2021/01/10 18:42:43;;;;;;;17.57;15.03;;;1.40;93.50;;;;;;10439477;28;20225;-86
2021/01/10 18:47:46;;;;;;;18.67;16.30;;;1.40;93.60;;;;;;10439387;28;20274;-83
2021/01/10 18:52:51;;;;;;;18.20;16.30;;;1.40;93.40;;;;;;10415187;28;20220;-83
2021/01/10 18:57:52;;;;;;;17.47;15.70;;;1.30;93.60;;;;;;10414992;28;20209;-82
2021/01/10 19:02:55;;;;;;;18.90;16.93;;;1.20;93.70;;;;;;10416306;28;20241;-81
2021/01/10 19:07:57;;;;;;;19.53;17.40;;;1.20;93.80;;;;;;10433955;28;20287;-82
2021/01/10 19:13:01;;;;;;;18.47;16.57;;;1.10;93.80;;;;;;10420264;28;20220;-82
2021/01/10 19:18:04;;;;;;;19.10;16.73;;;1.10;94.00;;;;;;10432510;28;20205;-82
2021/01/10 19:23:05;;;;;;;18.50;16.60;;;1.00;93.80;;;;;;10433799;28;20217;-82
2021/01/10 19:28:07;;;;;;;18.03;16.23;;;1.00;93.90;;;;;;10431875;28;20190;-81
2021/01/10 19:33:10;;;;;;;18.10;15.50;;;0.90;93.90;;;;;;10378942;28;20256;-82
2021/01/10 19:38:12;;;;;;;17.70;15.17;;;0.80;94.10;;;;;;10392192;28;20233;-82
2021/01/10 19:43:16;;;;;;;18.77;15.67;;;0.70;94.30;;;;;;10433697;28;20854;-82
2021/01/10 19:48:18;;;;;;;17.93;15.33;;;0.70;94.20;;;;;;10423143;28;20208;-82
2021/01/10 19:53:20;;;;;;;18.73;16.20;;;0.60;94.30;;;;;;10416570;28;20225;-82
2021/01/10 19:58:22;;;;;;;19.07;16.17;;;0.60;94.20;;;;;;10454486;28;20201;-82
2021/01/10 20:03:25;;;;;;;17.80;15.90;;;0.60;94.40;;;;;;10433783;28;20616;-82
2021/01/10 20:08:26;;;;;;;24.33;19.00;;;0.50;94.50;;;;;;10444229;28;20205;-82
2021/01/10 20:13:28;;;;;;;21.20;17.80;;;0.50;94.50;;;;;;10412419;28;20217;-84
2021/01/10 20:18:33;;;;;;;24.07;18.00;;;0.50;94.60;;;;;;10454235;28;20193;-83
2021/01/10 20:23:37;;;;;;;20.23;17.43;;;0.60;94.80;;;;;;10440381;28;20221;-84
2021/01/10 20:28:38;;;;;;;18.77;16.10;;;0.60;94.80;;;;;;10450537;28;20193;-84
2021/01/10 20:33:41;;;;;;;18.37;16.13;;;0.70;95.00;;;;;;10422238;28;20716;-83
2021/01/10 20:38:43;;;;;;;17.60;15.70;;;0.70;94.60;;;;;;10428360;28;20204;-84
2021/01/10 20:43:47;;;;;;;19.13;17.00;;;0.70;94.50;;;;;;10434584;28;20244;-84
2021/01/10 20:48:50;;;;;;;18.87;16.80;;;0.70;94.50;;;;;;10453588;28;20198;-84
2021/01/10 20:54:01;;;;;;;19.47;15.80;;;0.70;94.50;;;;;;10433220;28;20237;-84
2021/01/10 20:59:04;;;;;;;20.60;18.33;;;0.60;94.50;;;;;;10438295;28;20229;-84
2021/01/10 21:04:08;;;;;;;22.70;19.53;;;0.60;94.70;;;;;;10430095;28;20213;-85
2021/01/10 21:09:15;;;;;;;21.73;16.50;;;0.60;94.70;;;;;;10425181;28;20329;-84
2021/01/10 21:14:23;;;;;;;21.37;16.17;;;0.50;95.10;;;;;;10418564;28;20588;-84
2021/01/10 21:19:33;;;;;;;18.47;16.50;;;0.50;95.00;;;;;;10456871;28;20193;-84
2021/01/10 21:24:40;;;;;;;22.60;18.77;;;0.60;95.10;;;;;;10440056;28;20217;-83
2021/01/10 21:29:46;;;;;;;20.60;17.50;;;0.50;94.80;;;;;;10439286;28;20208;-85
2021/01/10 21:34:51;;;;;;;17.53;15.70;;;0.60;95.00;;;;;;10425951;28;20277;-83
2021/01/10 21:39:59;;;;;;;18.10;16.20;;;0.50;94.80;;;;;;10410913;28;20672;-83
2021/01/10 21:45:23;;;;;;;17.90;16.03;;;0.50;94.50;;;;;;10430983;28;20236;-82
2021/01/10 21:56:03;;;;;;;17.60;14.90;;;0.40;94.30;;;;;;10455317;28;20205;-82
2021/01/10 22:01:05;;;;;;;18.47;15.70;;;0.30;94.30;;;;;;10434420;28;20370;-82
2021/01/10 22:06:14;;;;;;;17.40;15.60;;;0.30;94.30;;;;;;10420032;28;20230;-82
2021/01/10 22:11:21;;;;;;;18.53;14.93;;;0.20;94.20;;;;;;10416774;28;20232;-82
2021/01/10 22:16:32;;;;;;;17.17;15.47;;;0.10;94.30;;;;;;10415942;28;20217;-82
2021/01/10 22:21:35;;;;;;;17.60;15.37;;;0.10;94.70;;;;;;10451598;28;20225;-81
2021/01/10 22:26:41;;;;;;;17.53;15.47;;;0.10;94.40;;;;;;10416750;28;20225;-81
2021/01/10 22:31:51;;;;;;;16.83;15.07;;;0.10;94.40;;;;;;10418836;28;20303;-82
2021/01/10 22:37:03;;;;;;;19.13;13.90;;;0.00;94.40;;;;;;10431102;28;20312;-82
2021/01/10 22:42:14;;;;;;;17.07;14.10;;;0.00;94.20;;;;;;10430342;28;20228;-82
2021/01/10 22:47:20;;;;;;;17.50;14.80;;;0.00;94.10;;;;;;10433116;28;20212;-85
2021/01/10 22:52:27;;;;;;;17.70;13.40;;;-0.10;94.10;;;;;;10444763;28;20223;-82
2021/01/10 22:57:29;;;;;;;17.80;14.20;;;-0.10;94.20;;;;;;10441664;28;20205;-83
2021/01/10 23:02:39;;;;;;;17.93;13.27;;;-0.10;94.10;;;;;;10428412;28;20243;-80
2021/01/10 23:07:50;;;;;;;19.33;17.23;;;-0.20;93.90;;;;;;10434512;28;20208;-84
2021/01/10 23:12:53;;;;;;;16.20;12.70;;;-0.30;94.30;;;;;;10426925;28;20707;-84
2021/01/10 23:17:55;;;;;;;20.40;16.13;;;-0.30;94.40;;;;;;10403767;28;20571;-82
2021/01/10 23:22:57;;;;;;;18.23;14.23;;;-0.30;94.30;;;;;;10418351;28;20276;-84
2021/01/10 23:28:00;;;;;;;16.60;14.30;;;-0.30;94.20;;;;;;10424678;28;20581;-84
2021/01/10 23:33:02;;;;;;;18.23;14.10;;;-0.30;94.20;;;;;;10412413;28;20695;-80
2021/01/10 23:38:07;;;;;;;16.50;14.70;;;-0.40;94.20;;;;;;10415367;28;20201;-83
2021/01/10 23:43:09;;;;;;;18.97;15.00;;;-0.40;93.90;;;;;;10413811;28;20481;-81
2021/01/10 23:48:13;;;;;;;18.47;15.10;;;-0.50;94.10;;;;;;10414652;28;20204;-81
2021/01/10 23:53:21;;;;;;;15.57;13.00;;;-0.50;94.10;;;;;;10398515;28;20244;-82
2021/01/10 23:58:29;;;;;;;19.60;14.40;;;-0.50;94.10;;;;;;10415415;28;20221;-81
